Аэропорт: Запорожье. Запорожье

ICAO: UKDE

METAR:
2019/05/25 20:00
UKDE 252000Z 21002MPS 9999 SCT033CB BKN050 17/15 Q1006 R02R/290552 NOSIG
METAR:
2019/03/22 16:42
TAF 
      AMD TAF 
      AMD UKDE 221637Z 2216/2324 26009MPS 9999 BKN030CB TX10/2216Z TN03/2224Z 
      TEMPO 2216/2219 26011G16MPS 2100 -TSRA BKN010 BKN015CB 
      BECMG 2219/2221 29006MPS